createdAt,value
2022-10-19T00:01:12.648Z,101248.00
2022-10-19T00:06:17.348Z,101249.22
2022-10-19T00:11:18.918Z,101251.50
2022-10-19T00:16:21.535Z,101255.94
2022-10-19T00:21:23.045Z,101254.78
2022-10-19T00:26:26.183Z,101261.91
2022-10-19T00:31:28.088Z,101266.91
2022-10-19T00:36:34.887Z,101271.78
2022-10-19T00:41:37.461Z,101266.06
2022-10-19T00:46:40.871Z,101264.66
2022-10-19T00:51:45.410Z,101260.19
2022-10-19T00:56:48.936Z,101268.81
2022-10-19T01:01:50.861Z,101265.66
2022-10-19T01:06:53.829Z,101266.41
2022-10-19T01:12:06.463Z,101250.53
2022-10-19T01:17:18.433Z,101256.94
2022-10-19T01:22:44.666Z,101253.16
2022-10-19T01:28:06.354Z,101246.56
2022-10-19T01:33:29.271Z,101246.00
2022-10-19T01:38:58.619Z,101234.72
2022-10-19T01:44:16.756Z,101242.88
2022-10-19T01:49:25.439Z,101241.91
2022-10-19T01:54:30.602Z,101246.44
2022-10-19T01:59:33.114Z,101243.72
2022-10-19T02:04:35.213Z,101254.63
2022-10-19T02:09:36.847Z,101252.19
2022-10-19T02:14:44.494Z,101244.28
2022-10-19T02:19:45.972Z,101248.41
2022-10-19T02:24:47.479Z,101241.78
2022-10-19T02:29:49.075Z,101246.31
2022-10-19T02:34:50.594Z,101238.50
2022-10-19T02:39:52.139Z,101246.97
2022-10-19T02:44:58.669Z,101245.59
2022-10-19T02:50:00.390Z,101241.19
2022-10-19T02:55:01.964Z,101254.75
2022-10-19T03:00:06.177Z,101251.78
2022-10-19T03:05:08.826Z,101248.41
2022-10-19T03:10:10.380Z,101247.44
2022-10-19T03:15:15.807Z,101240.63
2022-10-19T03:20:17.382Z,101233.44
2022-10-19T03:25:19.027Z,101232.00
2022-10-19T03:30:20.494Z,101236.38
2022-10-19T03:35:21.973Z,101233.41
2022-10-19T03:40:23.453Z,101241.59
2022-10-19T03:45:24.964Z,101252.38
2022-10-19T03:50:26.495Z,101259.88
2022-10-19T03:55:27.992Z,101252.81
2022-10-19T04:00:29.498Z,101252.94
2022-10-19T04:05:31.001Z,101253.25
2022-10-19T04:10:32.548Z,101255.22
2022-10-19T04:15:34.057Z,101264.84
2022-10-19T04:20:35.552Z,101267.38
2022-10-19T04:25:37.067Z,101274.72
2022-10-19T04:30:38.558Z,101267.38
2022-10-19T04:35:40.063Z,101261.44
2022-10-19T04:40:41.549Z,101265.94
2022-10-19T04:45:43.054Z,101276.28
2022-10-19T04:50:44.541Z,101280.25
2022-10-19T04:55:54.609Z,101282.38
2022-10-19T05:00:56.120Z,101284.75
2022-10-19T05:05:59.180Z,101289.13
2022-10-19T05:11:07.440Z,101289.69
2022-10-19T05:16:12.317Z,101288.84
2022-10-19T05:21:14.980Z,101276.28
2022-10-19T05:26:18.525Z,101276.44
2022-10-19T05:31:20.716Z,101285.47
2022-10-19T05:36:27.406Z,101285.19
2022-10-19T05:41:29.164Z,101289.53
2022-10-19T05:46:31.332Z,101290.25
2022-10-19T05:51:33.037Z,101301.84
2022-10-19T05:56:34.688Z,101288.28
2022-10-19T06:01:37.002Z,101308.19
2022-10-19T06:06:38.531Z,101307.25
2022-10-19T06:11:41.393Z,101312.78
2022-10-19T06:16:42.925Z,101313.75
2022-10-19T06:21:45.935Z,101309.25
2022-10-19T06:26:47.727Z,101301.06
2022-10-19T06:31:49.363Z,101310.66
2022-10-19T06:36:50.862Z,101323.13
2022-10-19T06:41:52.415Z,101323.25
2022-10-19T06:46:53.935Z,101323.97
2022-10-19T06:51:55.533Z,101334.75
2022-10-19T06:56:57.088Z,101331.19
2022-10-19T07:01:58.573Z,101331.19
2022-10-19T07:07:00.061Z,101335.44
2022-10-19T07:12:01.585Z,101336.44
2022-10-19T07:17:03.117Z,101348.59
2022-10-19T07:22:04.771Z,101346.88
2022-10-19T07:27:06.293Z,101350.59
2022-10-19T07:32:07.779Z,101353.00
2022-10-19T07:37:09.252Z,101368.72
2022-10-19T07:42:10.771Z,101368.72
2022-10-19T07:47:12.371Z,101372.06
2022-10-19T07:52:13.906Z,101376.06
2022-10-19T07:57:15.982Z,101373.53
2022-10-19T08:02:18.006Z,101363.34
2022-10-19T08:07:19.534Z,101374.09
2022-10-19T08:12:21.090Z,101381.72
2022-10-19T08:17:22.592Z,101380.19
2022-10-19T08:22:24.079Z,101390.53
2022-10-19T08:27:25.667Z,101397.88
2022-10-19T08:32:27.311Z,101399.44
2022-10-19T08:37:40.802Z,101393.63
2022-10-19T08:43:02.194Z,101396.47
2022-10-19T08:48:14.439Z,101389.38
2022-10-19T08:53:19.389Z,101393.47
2022-10-19T08:58:27.605Z,101391.03
2022-10-19T09:08:59.914Z,101386.38
2022-10-19T09:14:13.248Z,101385.63
2022-10-19T09:19:26.244Z,101383.94
2022-10-19T09:24:36.636Z,101391.75
2022-10-19T09:29:48.202Z,101372.97
2022-10-19T09:35:02.391Z,101382.75
2022-10-19T09:40:05.969Z,101386.84
2022-10-19T09:45:16.487Z,101389.50
2022-10-19T09:50:26.919Z,101383.91
2022-10-19T09:55:44.889Z,101381.91
2022-10-19T10:00:50.506Z,101392.22
2022-10-19T10:05:52.722Z,101392.59
2022-10-19T10:10:58.081Z,101395.25
2022-10-19T10:16:01.558Z,101393.41
2022-10-19T10:21:25.516Z,101392.97
2022-10-19T10:26:28.238Z,101404.03
2022-10-19T10:31:30.357Z,101392.75
2022-10-19T10:36:32.029Z,101392.84
2022-10-19T10:41:38.979Z,101404.09
2022-10-19T10:46:50.805Z,101394.63
2022-10-19T10:51:56.209Z,101401.50
2022-10-19T10:57:13.993Z,101394.38
2022-10-19T11:02:40.471Z,101401.97
2022-10-19T11:07:45.075Z,101409.03
2022-10-19T11:12:51.863Z,101407.03
2022-10-19T11:18:16.972Z,101402.56
2022-10-19T11:23:33.889Z,101407.91
2022-10-19T11:29:03.041Z,101401.81
2022-10-19T11:34:16.252Z,101404.75
2022-10-19T11:39:40.913Z,101391.34
2022-10-19T11:44:51.794Z,101402.94
2022-10-19T11:49:53.198Z,101401.25
2022-10-19T11:55:48.670Z,101393.88
2022-10-19T12:01:02.483Z,101392.19
2022-10-19T12:06:20.434Z,101380.22
2022-10-19T12:12:00.358Z,101371.84
2022-10-19T12:17:06.877Z,101371.31
2022-10-19T12:22:15.437Z,101376.22
2022-10-19T12:27:18.588Z,101375.19
2022-10-19T12:32:23.058Z,101378.59
2022-10-19T12:38:18.466Z,101374.94
2022-10-19T12:43:27.890Z,101367.56
2022-10-19T12:48:29.385Z,101364.00
2022-10-19T12:53:38.227Z,101360.16
2022-10-19T12:58:51.076Z,101366.22
2022-10-19T13:04:12.121Z,101358.47
2022-10-19T13:09:27.009Z,101358.47
2022-10-19T13:14:50.228Z,101347.69
2022-10-19T13:20:14.564Z,101341.91
2022-10-19T13:25:16.054Z,101331.28
2022-10-19T13:30:35.660Z,101338.63
2022-10-19T13:35:37.151Z,101337.44
2022-10-19T13:41:00.065Z,101335.19
2022-10-19T13:46:13.961Z,101342.09
2022-10-19T13:51:27.451Z,101337.13
2022-10-19T13:56:42.044Z,101337.34
2022-10-19T14:02:21.152Z,101332.09
2022-10-19T14:07:26.664Z,101329.25
2022-10-19T14:12:29.882Z,101325.53
2022-10-19T14:17:42.310Z,101323.00
2022-10-19T14:22:44.063Z,101315.34
2022-10-19T14:27:46.637Z,101314.94
2022-10-19T14:32:48.262Z,101307.31
2022-10-19T14:37:50.145Z,101301.78
2022-10-19T14:42:51.679Z,101303.75
2022-10-19T14:48:01.950Z,101305.22
2022-10-19T14:53:42.262Z,101307.19
2022-10-19T14:58:54.304Z,101314.56
2022-10-19T15:03:56.242Z,101300.81
2022-10-19T15:09:04.344Z,101306.09
2022-10-19T15:14:08.980Z,101300.28
2022-10-19T15:19:26.435Z,101292.50
2022-10-19T15:24:28.308Z,101296.00
2022-10-19T15:29:29.957Z,101293.09
2022-10-19T15:34:31.561Z,101288.81
2022-10-19T15:39:41.022Z,101296.78
2022-10-19T15:44:44.956Z,101292.28
2022-10-19T15:49:46.918Z,101285.72
2022-10-19T15:54:53.772Z,101280.34
2022-10-19T15:59:57.019Z,101279.81
2022-10-19T16:04:58.609Z,101274.44
2022-10-19T16:10:00.161Z,101283.50
2022-10-19T16:15:01.716Z,101287.59
2022-10-19T16:20:03.787Z,101282.66
2022-10-19T16:25:05.730Z,101294.84
2022-10-19T16:30:07.987Z,101294.38
2022-10-19T16:35:10.152Z,101288.59
2022-10-19T16:40:11.779Z,101300.75
2022-10-19T16:45:13.378Z,101290.28
2022-10-19T16:50:15.125Z,101294.81
2022-10-19T16:55:16.767Z,101294.53
2022-10-19T17:00:18.361Z,101296.22
2022-10-19T17:05:19.901Z,101304.28
2022-10-19T17:10:21.591Z,101313.75
2022-10-19T17:15:41.945Z,101308.09
2022-10-19T17:20:44.351Z,101314.88
2022-10-19T17:25:49.109Z,101321.50
2022-10-19T17:30:52.301Z,101320.53
2022-10-19T17:35:53.788Z,101315.28
2022-10-19T17:40:55.351Z,101324.88
2022-10-19T17:45:59.097Z,101325.81
2022-10-19T17:51:06.214Z,101334.88
2022-10-19T17:56:08.452Z,101332.81
2022-10-19T18:01:11.178Z,101342.56
2022-10-19T18:06:18.250Z,101348.31
2022-10-19T18:11:22.583Z,101344.63
2022-10-19T18:16:30.007Z,101345.66
2022-10-19T18:21:34.433Z,101350.66
2022-10-19T18:26:36.125Z,101352.72
2022-10-19T18:31:38.529Z,101341.91
2022-10-19T18:36:40.233Z,101349.44
2022-10-19T18:41:41.794Z,101340.38
2022-10-19T18:46:43.350Z,101321.50
2022-10-19T18:51:50.639Z,101325.81
2022-10-19T18:56:55.906Z,101324.22
2022-10-19T19:01:57.470Z,101318.69
2022-10-19T19:06:59.043Z,101322.16
2022-10-19T19:12:01.138Z,101325.34
2022-10-19T19:17:02.686Z,101313.03
2022-10-19T19:22:08.645Z,101314.28
2022-10-19T19:27:10.504Z,101312.47
2022-10-19T19:32:12.023Z,101314.97
2022-10-19T19:37:14.259Z,101318.22
2022-10-19T19:42:16.321Z,101317.16
2022-10-19T19:47:19.341Z,101322.66
2022-10-19T19:52:20.904Z,101324.72
2022-10-19T19:57:22.884Z,101327.38
2022-10-19T20:02:24.390Z,101330.53
2022-10-19T20:07:27.005Z,101327.44
2022-10-19T20:12:29.256Z,101330.41
2022-10-19T20:17:30.748Z,101333.81
2022-10-19T20:22:32.305Z,101335.81
2022-10-19T20:27:37.017Z,101344.22
2022-10-19T20:32:38.925Z,101342.97
2022-10-19T20:37:40.691Z,101342.97
2022-10-19T20:42:43.852Z,101342.59
2022-10-19T20:47:45.335Z,101342.75
2022-10-19T20:52:46.852Z,101335.19
2022-10-19T20:57:48.479Z,101340.69
2022-10-19T21:02:50.111Z,101345.47
2022-10-19T21:07:52.753Z,101341.44
2022-10-19T21:12:54.256Z,101337.31
2022-10-19T21:17:55.723Z,101334.38
2022-10-19T21:22:58.153Z,101330.72
2022-10-19T21:27:59.667Z,101336.84
2022-10-19T21:33:01.200Z,101330.38
2022-10-19T21:38:02.735Z,101333.66
2022-10-19T21:43:04.642Z,101327.59
2022-10-19T21:48:06.264Z,101313.94
2022-10-19T21:53:07.780Z,101312.28
2022-10-19T21:58:09.274Z,101308.59
2022-10-19T22:03:10.967Z,101305.94
2022-10-19T22:08:12.461Z,101304.09
2022-10-19T22:13:14.062Z,101300.59
2022-10-19T22:18:15.808Z,101292.56
2022-10-19T22:23:17.435Z,101288.16
2022-10-19T22:28:18.909Z,101291.09
2022-10-19T22:33:20.941Z,101283.78
2022-10-19T22:38:23.103Z,101266.03
2022-10-19T22:43:24.627Z,101271.78
2022-10-19T22:48:26.261Z,101272.72
2022-10-19T22:53:27.781Z,101275.03
2022-10-19T22:58:29.265Z,101267.97
2022-10-19T23:03:30.864Z,101266.22
2022-10-19T23:08:32.426Z,101269.69
2022-10-19T23:13:33.964Z,101267.13
2022-10-19T23:18:37.339Z,101265.28
2022-10-19T23:23:39.342Z,101263.34
2022-10-19T23:28:43.053Z,101261.34
2022-10-19T23:33:44.737Z,101252.63
2022-10-19T23:38:48.120Z,101249.44
2022-10-19T23:43:49.604Z,101257.72
2022-10-19T23:48:51.076Z,101246.91
2022-10-19T23:53:53.303Z,101247.81
2022-10-19T23:58:55.666Z,101249.66
